createdAt,value
2022-12-22T00:00:32.356Z,20.9
2022-12-22T00:15:33.297Z,20.9
2022-12-22T00:30:32.310Z,20.9
2022-12-22T00:45:32.577Z,20.9
2022-12-22T01:00:32.541Z,20.9
2022-12-22T01:15:32.191Z,20.9
2022-12-22T01:30:32.528Z,20.9
2022-12-22T01:45:31.901Z,20.8
2022-12-22T02:00:31.830Z,20.8
2022-12-22T02:15:32.217Z,20.8
2022-12-22T02:30:32.271Z,20.8
2022-12-22T02:45:32.731Z,20.8
2022-12-22T03:00:32.392Z,20.8
2022-12-22T03:15:31.776Z,20.8
2022-12-22T03:30:32.112Z,20.8
2022-12-22T03:45:32.578Z,20.8
2022-12-22T04:00:32.061Z,20.8
2022-12-22T04:15:32.048Z,20.8
2022-12-22T04:30:32.163Z,20.8
2022-12-22T04:45:32.424Z,20.8
2022-12-22T05:00:32.074Z,20.8
2022-12-22T05:15:31.874Z,20.8
2022-12-22T05:30:31.929Z,20.7
2022-12-22T05:45:31.921Z,20.7
2022-12-22T06:00:33.436Z,20.7
2022-12-22T06:15:32.563Z,20.8
2022-12-22T06:30:33.736Z,20.8
2022-12-22T06:45:31.846Z,20.9
2022-12-22T07:00:35.235Z,21.0
2022-12-22T07:15:31.986Z,21.1
2022-12-22T07:30:34.278Z,21.2
2022-12-22T07:45:32.887Z,21.2
2022-12-22T08:00:35.403Z,21.3
2022-12-22T08:15:33.329Z,21.3
2022-12-22T08:30:33.022Z,21.4
2022-12-22T08:45:32.226Z,21.4
2022-12-22T09:00:33.487Z,21.5
2022-12-22T09:15:32.724Z,21.5
2022-12-22T09:30:32.830Z,21.5
2022-12-22T09:45:32.185Z,21.6
2022-12-22T10:00:34.320Z,21.7
2022-12-22T10:15:31.825Z,21.7
2022-12-22T10:30:32.037Z,21.8
2022-12-22T10:45:31.714Z,21.8
2022-12-22T11:00:35.075Z,21.9
2022-12-22T11:15:32.176Z,21.9
2022-12-22T11:30:32.779Z,21.9
2022-12-22T11:45:35.234Z,21.9
2022-12-22T12:01:04.140Z,21.9
2022-12-22T12:15:32.431Z,21.9
2022-12-22T12:30:39.009Z,21.9
2022-12-22T12:45:31.832Z,22
2022-12-22T13:00:33.824Z,22
2022-12-22T13:15:32.060Z,22.1
2022-12-22T13:30:33.415Z,22.0
2022-12-22T13:45:32.537Z,22.1
2022-12-22T14:00:32.905Z,22.1
2022-12-22T14:15:32.708Z,22.1
2022-12-22T14:30:36.333Z,22.2
2022-12-22T14:45:32.005Z,22.2
2022-12-22T15:00:34.430Z,22.2
2022-12-22T15:15:32.372Z,22.3
2022-12-22T15:30:32.967Z,22.3
2022-12-22T15:45:32.096Z,22.2
2022-12-22T16:00:34.287Z,22.2
2022-12-22T16:15:33.137Z,22.0
2022-12-22T16:30:32.840Z,22
2022-12-22T16:45:32.085Z,21.9
2022-12-22T17:00:35.340Z,21.8
2022-12-22T17:15:32.451Z,21.8
2022-12-22T17:30:32.982Z,21.7
2022-12-22T17:45:32.309Z,21.6
2022-12-22T18:00:35.306Z,21.6
2022-12-22T18:15:32.125Z,21.5
2022-12-22T18:30:31.949Z,21.5
2022-12-22T18:45:32.581Z,21.4
2022-12-22T19:00:34.066Z,21.4
2022-12-22T19:15:32.029Z,21.3
2022-12-22T19:30:32.228Z,21.3
2022-12-22T19:45:31.939Z,21.3
2022-12-22T20:00:34.023Z,21.2
2022-12-22T20:15:32.129Z,21.2
2022-12-22T20:30:32.243Z,21.2
2022-12-22T20:45:32.689Z,21.2
2022-12-22T21:00:33.802Z,21.1
2022-12-22T21:15:32.333Z,21.1
2022-12-22T21:30:32.637Z,21.1
2022-12-22T21:45:34.738Z,21.1
2022-12-22T22:00:33.452Z,21.1
2022-12-22T22:15:32.321Z,21.0
2022-12-22T22:30:32.440Z,21.0
2022-12-22T22:45:32.408Z,21
2022-12-22T23:00:32.485Z,21
2022-12-22T23:15:32.077Z,21.0
2022-12-22T23:30:32.262Z,21
2022-12-22T23:45:32.252Z,21
